Togiak Airport
PATG : now visible

Airfield :











YOU CAN JOIN US ON...

 
LOGIN :

Register | Disclaimer

   EN    FR    IT 

 









Legend :    VFR   Marginal VFR   IFR   Intensive IFR   Very Intensive IFR
Visi :
Ceiling :
>= 8 km
>= 3000ft
5 to 8 km
1000 to 3000 ft
1500m to 5 km
500 to 1000 ft
800 to 1500m
200 to 500 ft
< 800m
< 200 ft
Symbols :   Thunderstorms  Fog  Heavy snow  Heavy precipitations  Wind > 20 kt






- Airport Elevation : 21 ft
- IATA code : TOG


PATG - Togiak

CURRENT METAR :
  • 010556Z AUTO 14010KT 10SM -RA OVC010 13/13 A2996 RMK AO2 RAB10 CIG 009V013 SLP241 P0002 60015 T01280128 10133 20122 53002

EXPIRED METARs :
  • 010456Z AUTO 14010KT 10SM OVC012 13/13 A2996 RMK AO2 RAE0358 SLP240 P0002 T01280128
  • 010356Z AUTO 14009KT 10SM -RA BKN010 OVC014 13/13 A2996 RMK AO2 CIG 008V012 SLP238 P0003 T01280128
  • 010339Z AUTO 14009KT 10SM -RA BKN010 OVC014 13/13 A2996 RMK AO2 CIG 007V012 P0002
  • 010329Z AUTO 14009KT 8SM -RA BKN008 OVC018 13/13 A2996 RMK AO2 CIG 007V012 P0002
  • 010320Z AUTO 14009KT 8SM -RA FEW004 SCT008 OVC018 13/13 A2996 RMK AO2 P0001

TAF N/A
PAZA FIR / North America



MET'MAP, your aeronautical weather chart ! - Copyright ORBIFLY December 2007 - Disclaimer

ORBIFLY MET'MAP TEAM :

Programming & Development : Alexandra Zaïnal
Concept & original design : Baudouin d'Aumeries
Assistance for programming : Marc-Olivier Méhu
Technical & hardware support : Manuel Goepfert

Contact : metmap@orbifly.com




SOURCES & CREDITS :

   NOAA       Earth
Advisory